Weather at Rusape Airport

Public forecast

Using degrees Celsius for public forecast. Weather courtesy of forecast.io.

Closest aviation weather report (METAR) to Rusape Airport

Closest report is Robert Gabriel Mugabe International Airport, 69.4 nm (128.6 km) WNW. Retrieved 2021/02/27 01:00 UTC (2 hours ago):

FVRG 270100Z 00000KT 9999 BKN008 17/16 Q1018 NOSIG

Closest aviation forecast (TAF) to Rusape Airport

Forecast is more than 6 hours old.

Closest forecast is Robert Gabriel Mugabe International Airport, 69.4 nm (128.6 km) WNW. Retrieved 2021/02/26 18:00 UTC (9 hours ago):

TAF FVRG 261600Z 2618/2724 08007KT 8000 -TSRA BKN008 FEW020CB OVC080 BECMG 2708/2710 9999 SCT010 FEW020CB BKN080 PROB30 TEMPO 2710/2716 5000 TSRA BECMG 2720/2722 8000 -TSRA